Hunter, Oklahoma
Current Conditions -  °F | °C
As of 4:50 PM on Wednesday 22 Oct 2014 (Local Time) from KWDG Reporting Station
Broken Clouds Broken Clouds  
Wind Chill: 77°   Ceiling: 10000
Heat Index: 79°   Visibility: 10mi
Dew Point: 57°   Wind: 16mph
Humidity: 50%   Direction: 170°S
Pressure: 30.05"   Gusts: NA
Location:  36.56°N, 97.66°W
Report Text: KWDG 222150Z 17014KT 10SM BKN100 BKN150 25/14 A3005
Loading
Personal Weather Stations






























Interactive Weather Map
Tropical Storm Tracking
New forecast layout! Learn more

10-Day Weather Forecast

Advertisements
Track Severe Weather on mobile